NCAR-RAP Real-Time Weather Data

Output produced by METARs form (08 May 2021  15:43 UTC)
found at http://weather.rap.ucar.edu/surface/
 
KBRO 081453Z 16020G26KT 10SM FEW022 SCT034 29/22 A2995 RMK AO2 PK WND 16026/1445 SLP140 T02890217 50004
KBRO 081433Z 15018G24KT 10SM FEW021 SCT027 BKN036 28/22 A2995 RMK AO2 T02830217
KBRO 081408Z 15014G21KT 10SM SCT018 BKN024 28/22 A2996 RMK AO2 T02780222
KBRO 081353Z 15013KT 10SM FEW016 27/22 A2996 RMK AO2 SLP143 T02720222
KBRO 081253Z 13008KT 10SM CLR 25/23 A2994 RMK AO2 SLP138 T02500228
KBRO 081235Z 13008KT 10SM SCT019 24/23 A2994 RMK AO2 T02440228
KBRO 081153Z 12006KT 10SM FEW003 OVC019 24/22 A2994 RMK AO2 SLP137 T02440222 10250 20244 56004
KBRO 081130Z 12006KT 10SM SCT006 OVC018 24/22 A2994 RMK AO2 T02440222
KBRO 081053Z 14006KT 10SM OVC007 25/23 A2994 RMK AO2 SLP137 T02500228
KBRO 081029Z AUTO 15008KT 10SM BKN007 OVC019 25/23 A2993 RMK AO2 T02500228
KBRO 081011Z AUTO 15008KT 10SM BKN008 OVC020 25/23 A2993 RMK AO2 T02500228
KBRO 080953Z AUTO 15007KT 10SM BKN010 OVC019 25/22 A2994 RMK AO2 SLP137 T02500222
KBRO 080941Z AUTO 15008KT 10SM BKN010 OVC019 25/22 A2994 RMK AO2 T02500222
KBRO 080902Z AUTO 14008KT 10SM OVC007 25/23 A2995 RMK AO2 T02500228
KBRO 080853Z AUTO 14008KT 10SM OVC008 25/23 A2995 RMK AO2 SLP140 T02500228 56023
KBRO 080804Z AUTO 14010KT 10SM OVC009 25/22 A2995 RMK AO2 CIG 008V013 T02500222
KBRO 080753Z AUTO 14013KT 10SM BKN010 OVC013 25/22 A2996 RMK AO2 CIG 008V011 SLP144 T02500222
KBRO 080653Z AUTO 15011KT 10SM OVC011 25/22 A2999 RMK AO2 SLP155 T02500222
KBRO 080553Z AUTO 14010KT 10SM BKN012 BKN019 OVC027 25/22 A3002 RMK AO2 SLP163 T02500222 10261 20244 402940156 58002
KBRO 080500Z AUTO 13008KT 10SM FEW013 OVC020 25/22 A3003 RMK AO2 T02500217
KBRO 080453Z 13010KT 10SM BKN013 OVC020 24/22 A3003 RMK AO2 SLP167 T02440217
KBRO 080440Z 12008KT 10SM BKN013 BKN020 OVC026 24/22 A3003 RMK AO2 T02440217
KBRO 080413Z 12009KT 10SM BKN016 OVC022 24/22 A3003 RMK AO2 T02440217
KBRO 080353Z 12007KT 10SM BKN014 OVC021 24/22 A3003 RMK AO2 SLP167 T02440217
KBRO 080253Z 10009KT 10SM BKN013 24/21 A3002 RMK AO2 SLP164 T02440211 55001
KBRO 080228Z 10007KT 10SM BKN013 24/21 A3003 RMK AO2 T02440211
KBRO 080153Z 10009KT 10SM FEW014 24/21 A3002 RMK AO2 SLP163 T02440211
KBRO 080053Z 09011KT 10SM FEW018 SCT025 25/21 A3001 RMK AO2 SLP162 T02500206
KBRO 072353Z 10009KT 10SM BKN025 BKN031 26/20 A3002 RMK AO2 SLP165 T02610200 10294 20261 56014
KBRO 072332Z 10011G17KT 10SM BKN025 27/20 A3003 RMK AO2 T02670200
KBRO 072253Z 08011KT 10SM SCT027 28/20 A3003 RMK AO2 SLP167 T02780200
KBRO 072153Z 08011KT 10SM FEW025 SCT036 28/20 A3005 RMK AO2 SLP173 T02830200
KBRO 072104Z 10010KT 10SM SCT030 SCT035 28/19 A3006 RMK AO2 T02830189
KBRO 072053Z 12009KT 10SM BKN029 28/19 A3006 RMK AO2 SLP179 T02830194 56020
KBRO 071953Z 10008KT 10SM SCT033 29/18 A3008 RMK AO2 SLP184 T02940183
KBRO 071853Z 09009KT 10SM FEW034 29/18 A3010 RMK AO2 SLP192 T02940183
KBRO 071753Z 09006KT 10SM SCT035 28/18 A3012 RMK AO2 SLP199 T02830178 10294 20172 58006
KBRO 071653Z 00000KT 10SM FEW030 28/18 A3014 RMK AO2 SLP205 T02830178
KBRO 071635Z VRB03KT 10SM SCT030 27/18 A3015 RMK AO2 T02720178
KBRO 071628Z 05007KT 360V080 10SM BKN029 28/18 A3015 RMK AO2 T02780183
KBRO 071616Z 00000KT 10SM BKN030 27/18 A3015 RMK AO2 T02720178
KBRO 071553Z 05004KT 10SM BKN026 26/18 A3015 RMK AO2 SLP208 T02610178
KBRO 071505Z 05005KT 10SM SCT022 26/18 A3014 RMK AO2 T02610183
KBRO 071453Z VRB05KT 10SM BKN022 25/18 A3014 RMK AO2 SLP205 T02500183 51012
KBRO 071445Z 12005KT 10SM FEW017 SCT022 24/18 A3014 RMK AO2 T02440178
KBRO 071436Z 04005KT 10SM FEW017 BKN022 26/19 A3014 RMK AO2 T02560189
KBRO 071353Z 00000KT 10SM CLR 23/19 A3014 RMK AO2 SLP204 T02280194
KBRO 071253Z 00000KT 10SM CLR 19/18 A3012 RMK AO2 SLP199 T01940178
KBRO 071153Z 00000KT 10SM SCT020 17/16 A3010 RMK AO2 SLP193 T01720156 10194 20156 53006
KBRO 071053Z 00000KT 10SM OVC019 17/16 A3009 RMK AO2 SLP189 T01720161
KBRO 071005Z AUTO 00000KT 10SM BKN019 17/16 A3009 RMK AO2 T01720156
KBRO 070953Z AUTO 00000KT 10SM SCT019 17/15 A3009 RMK AO2 SLP186 T01670150
KBRO 070928Z AUTO 00000KT 3SM BR FEW017 17/16 A3009 RMK AO2 T01720156
KBRO 070922Z AUTO 00000KT 1 3/4SM BR FEW016 17/16 A3009 RMK AO2 T01720156
KBRO 070853Z AUTO 00000KT 8SM CLR 17/16 A3009 RMK AO2 SLP186 T01720156 56013
KBRO 070753Z AUTO 00000KT 10SM CLR 17/17 A3009 RMK AO2 SLP188 T01720167
KBRO 070725Z AUTO 00000KT 10SM SCT019 18/17 A3010 RMK AO2 T01830167
KBRO 070712Z AUTO 00000KT 8SM BKN019 19/17 A3011 RMK AO2 T01890172
KBRO 070653Z AUTO 00000KT 7SM FEW018 19/17 A3011 RMK AO2 SLP195 T01890172
KBRO 070553Z AUTO 05004KT 10SM SCT014 19/17 A3012 RMK AO2 SLP199 T01890172 10256 20178 402720178 50005
KBRO 070453Z 00000KT 10SM CLR 19/17 A3013 RMK AO2 SLP200 T01890172
KBRO 070353Z 01003KT 10SM CLR 20/18 A3012 RMK AO2 SLP199 T02000178
KBRO 070253Z 35003KT 10SM CLR 21/18 A3011 RMK AO2 SLP195 T02060178 53009
KBRO 070153Z 03003KT 10SM CLR 22/18 A3010 RMK AO2 SLP191 T02220183
KBRO 070053Z 03005KT 10SM CLR 23/18 A3008 RMK AO2 SLP184 T02330183
KBRO 062353Z 06009KT 10SM SCT023 26/18 A3008 RMK AO2 SLP185 60000 T02560183 10272 20233 55007
KBRO 062336Z 03008KT 10SM SCT022 26/18 A3008 RMK AO2 T02560183
KBRO 062321Z 03010KT 10SM BKN022 26/19 A3008 RMK AO2 T02610189
KBRO 062253Z 05010KT 10SM FEW021 27/19 A3008 RMK AO2 SLP183 T02670189
KBRO 062245Z 05009KT 10SM FEW019 SCT029 27/19 A3008 RMK AO2 T02720194
KBRO 062153Z 05011KT 10SM FEW008 OVC019 24/21 A3009 RMK AO2 DZE39 SLP186 P0000 T02440206
KBRO 062140Z 05010KT 10SM SCT008 BKN012 OVC017 24/21 A3009 RMK AO2 DZE39 P0000 T02390211
KBRO 062128Z 05008KT 9SM DZ FEW006 SCT012 OVC017 24/21 A3009 RMK AO2 P0000 T02390211
KBRO 062053Z 04011KT 4SM DZ BKN009 OVC015 24/21 A3010 RMK AO2 RAB32E34DZB35 CIG 007V012 SLP192 P0000 60000 T02390211 58003
KBRO 062036Z 05011KT 4SM DZ FEW007 OVC013 24/21 A3011 RMK AO2 RAB32E34DZB35 P0000 T02390211
KBRO 062004Z 04011KT 10SM OVC015 26/21 A3010 RMK AO2 T02560206
KBRO 061953Z 05009G16KT 10SM OVC014 26/21 A3011 RMK AO2 SLP193 T02560206
KBRO 061909Z 05012KT 10SM OVC014 26/21 A3011 RMK AO2 T02610206
KBRO 061853Z 02009KT 10SM OVC015 26/21 A3011 RMK AO2 SLP195 T02560206
KBRO 061851Z 04008KT 10SM OVC015 26/21 A3011 RMK AO2
KBRO 061753Z 04010KT 10SM OVC014 26/21 A3012 RMK AO2 SLP198 T02560206 10261 20239 50004
KBRO 061734Z 03011KT 10SM BKN014 OVC019 26/21 A3012 RMK AO2 T02560206
KBRO 061653Z 03010KT 10SM OVC019 26/21 A3012 RMK AO2 SLP199 T02610211
KBRO 061553Z 04010KT 10SM OVC016 26/21 A3012 RMK AO2 SLP197 T02610211